Time;durP1;ratioP1;P1;durP2;ratioP2;P2;SDS_P1;SDS_P2;PMS_P1;PMS_P2;Temp;Humidity;BMP_temperature;BMP_pressure;BME280_temperature;BME280_humidity;BME280_pressure;Samples;Min_cycle;Max_cycle;Signal;HPM_P1;HPM_P2
2021/03/20 00:01:01;;;;;;;5.88;3.65;;;-0.30;99.90;;;;;;5042874;28;20045;-53
2021/03/20 00:03:26;;;;;;;5.03;3.40;;;-0.50;99.90;;;;;;5043445;28;20041;-53
2021/03/20 00:05:53;;;;;;;8.13;3.40;;;-0.40;99.90;;;;;;5043001;28;20133;-52
2021/03/20 00:08:22;;;;;;;9.57;3.67;;;-0.40;99.90;;;;;;5026829;28;20065;-51
2021/03/20 00:10:48;;;;;;;5.93;3.15;;;-0.40;99.90;;;;;;5027980;28;20042;-55
2021/03/20 00:13:17;;;;;;;13.20;3.85;;;-0.60;99.90;;;;;;5035278;28;20045;-55
2021/03/20 00:15:42;;;;;;;6.95;3.63;;;-0.70;99.90;;;;;;5045767;28;20037;-51
2021/03/20 00:18:09;;;;;;;8.50;3.70;;;-0.80;99.90;;;;;;5046929;28;20043;-52
2021/03/20 00:20:38;;;;;;;7.53;3.13;;;-0.80;99.90;;;;;;5047645;28;20036;-50
2021/03/20 00:23:04;;;;;;;5.00;2.72;;;-0.90;99.90;;;;;;5046376;28;20037;-48
2021/03/20 00:25:31;;;;;;;5.15;2.42;;;-0.90;99.90;;;;;;5047581;28;20048;-53
2021/03/20 00:27:57;;;;;;;6.90;2.45;;;-1.00;99.90;;;;;;5046929;28;20060;-51
2021/03/20 00:30:24;;;;;;;8.20;2.25;;;-1.00;99.90;;;;;;5026210;28;20037;-48
2021/03/20 00:32:50;;;;;;;8.52;4.03;;;-1.00;99.90;;;;;;5026380;28;20044;-54
2021/03/20 00:35:17;;;;;;;5.97;2.47;;;-1.10;99.90;;;;;;5026972;28;20041;-53
2021/03/20 00:37:43;;;;;;;8.27;2.55;;;-1.20;99.90;;;;;;5045543;28;20486;-53
2021/03/20 00:40:11;;;;;;;6.05;2.47;;;-1.20;99.90;;;;;;5046765;28;20041;-54
2021/03/20 00:42:37;;;;;;;14.68;6.15;;;-1.20;99.90;;;;;;5045370;28;20049;-51
2021/03/20 00:45:05;;;;;;;6.55;3.20;;;-1.20;99.90;;;;;;5045419;28;20037;-54
2021/03/20 00:47:31;;;;;;;11.20;3.88;;;-1.20;99.90;;;;;;5045706;28;20037;-48
2021/03/20 00:49:57;;;;;;;6.45;2.78;;;-1.20;99.90;;;;;;5047160;28;20036;-51
2021/03/20 00:52:22;;;;;;;7.38;2.70;;;-1.20;99.90;;;;;;5046760;28;20140;-47
2021/03/20 00:54:48;;;;;;;5.40;2.28;;;-1.20;99.90;;;;;;5039835;28;20041;-52
2021/03/20 00:57:14;;;;;;;8.07;2.60;;;-1.20;99.90;;;;;;5047107;28;20083;-55
2021/03/20 00:59:39;;;;;;;6.38;2.28;;;-1.30;99.90;;;;;;5046766;28;20025;-50
2021/03/20 01:02:05;;;;;;;5.53;2.20;;;-1.40;99.90;;;;;;5045200;28;20114;-49
2021/03/20 01:04:30;;;;;;;4.80;2.38;;;-1.50;99.90;;;;;;5045950;28;20068;-51
2021/03/20 01:06:56;;;;;;;6.95;2.40;;;-1.60;99.90;;;;;;5040925;28;20508;-52
2021/03/20 01:09:22;;;;;;;6.03;2.55;;;-1.60;99.90;;;;;;5046736;28;20128;-50
2021/03/20 01:11:47;;;;;;;5.80;2.28;;;-1.60;99.90;;;;;;5046214;28;20041;-52
2021/03/20 01:14:13;;;;;;;8.23;2.30;;;-1.60;99.90;;;;;;5045586;28;20675;-54
2021/03/20 01:16:39;;;;;;;4.68;2.35;;;-1.60;99.90;;;;;;5045792;28;20040;-49
2021/03/20 01:19:04;;;;;;;7.70;2.72;;;-1.80;99.90;;;;;;5045842;28;20081;-48
2021/03/20 01:21:30;;;;;;;5.78;2.28;;;-1.90;99.90;;;;;;5045530;28;20540;-49
2021/03/20 01:23:56;;;;;;;4.07;1.90;;;-1.80;99.90;;;;;;5046673;28;20045;-51
2021/03/20 01:26:21;;;;;;;6.10;2.00;;;-1.90;99.90;;;;;;5045658;28;20063;-52
2021/03/20 01:28:47;;;;;;;5.45;2.03;;;-1.90;99.90;;;;;;5045546;28;20041;-51
2021/03/20 01:31:14;;;;;;;5.40;2.08;;;-1.90;99.90;;;;;;5045319;28;20038;-52
2021/03/20 01:33:40;;;;;;;5.03;2.03;;;-1.90;99.90;;;;;;5046268;28;20053;-49
2021/03/20 01:36:06;;;;;;;8.90;2.15;;;-2.00;99.90;;;;;;5045257;28;20036;-50
2021/03/20 01:38:32;;;;;;;6.75;2.63;;;-2.00;99.90;;;;;;5046544;28;20041;-52
2021/03/20 01:41:01;;;;;;;6.10;2.20;;;-2.10;99.90;;;;;;5045733;28;20036;-55
2021/03/20 01:43:33;;;;;;;6.30;2.00;;;-2.10;99.90;;;;;;5044548;28;20091;-54
2021/03/20 01:46:35;;;;;;;9.23;1.88;;;-2.10;99.90;;;;;;5045339;28;20037;-49
2021/03/20 01:49:11;;;;;;;3.42;1.90;;;-2.10;99.90;;;;;;5043782;28;20033;-49
2021/03/20 01:51:36;;;;;;;9.77;2.38;;;-2.10;99.90;;;;;;5044186;28;20041;-49
2021/03/20 01:54:02;;;;;;;4.57;1.98;;;-2.10;99.90;;;;;;5045302;28;20045;-52
2021/03/20 01:56:39;;;;;;;5.05;1.90;;;-2.10;99.90;;;;;;5046467;28;20049;-54
2021/03/20 01:59:05;;;;;;;7.93;1.95;;;-2.10;99.90;;;;;;5044863;28;20298;-54
2021/03/20 02:01:33;;;;;;;4.38;1.90;;;-2.00;99.90;;;;;;5043729;28;20778;-51
2021/03/20 02:04:00;;;;;;;5.05;1.70;;;-2.10;99.90;;;;;;5028554;28;20048;-49
2021/03/20 02:06:27;;;;;;;7.47;2.40;;;-2.10;99.90;;;;;;5045659;28;20154;-50
2021/03/20 02:08:54;;;;;;;9.00;2.30;;;-2.10;99.90;;;;;;5045130;28;20087;-50
2021/03/20 02:11:32;;;;;;;4.15;1.70;;;-2.10;99.90;;;;;;5038567;28;20048;-54
2021/03/20 02:14:06;;;;;;;4.32;2.00;;;-2.00;99.90;;;;;;5040302;28;20049;-50
2021/03/20 02:16:43;;;;;;;2.83;1.75;;;-2.00;99.90;;;;;;5044204;28;20508;-53
2021/03/20 02:19:24;;;;;;;4.22;2.13;;;-2.00;99.90;;;;;;5044747;28;20044;-50
2021/03/20 02:21:56;;;;;;;5.80;2.20;;;-2.00;99.90;;;;;;5045101;28;20430;-53
2021/03/20 02:24:56;;;;;;;5.20;2.20;;;-2.10;99.90;;;;;;5041684;28;20041;-53
2021/03/20 02:27:28;;;;;;;5.68;2.13;;;-2.10;99.90;;;;;;5046985;28;20064;-51
2021/03/20 02:30:02;;;;;;;8.02;1.85;;;-2.10;99.90;;;;;;5052673;28;20582;-52
2021/03/20 02:32:53;;;;;;;4.53;1.67;;;-2.10;99.90;;;;;;5047184;28;20537;-52
2021/03/20 02:35:51;;;;;;;7.32;2.03;;;-2.10;99.90;;;;;;5065038;28;20040;-54
2021/03/20 02:38:40;;;;;;;4.25;1.90;;;-2.10;99.90;;;;;;5024962;28;20038;-51
2021/03/20 02:41:55;;;;;;;4.25;1.80;;;-2.20;99.90;;;;;;5024033;28;20084;-50
2021/03/20 02:44:29;;;;;;;7.20;1.73;;;-2.20;99.90;;;;;;5006471;28;20050;-51
2021/03/20 02:47:04;;;;;;;3.83;2.00;;;-2.20;99.90;;;;;;5023536;28;20037;-50
2021/03/20 02:49:38;;;;;;;3.35;1.58;;;-2.20;99.90;;;;;;5036570;28;20046;-49
2021/03/20 02:52:03;;;;;;;5.32;1.77;;;-2.20;99.90;;;;;;5055930;28;20688;-48
2021/03/20 02:54:36;;;;;;;3.63;1.77;;;-2.20;99.90;;;;;;5058435;28;20045;-48
2021/03/20 02:57:08;;;;;;;6.13;2.15;;;-2.30;99.90;;;;;;5043884;28;20527;-50
2021/03/20 02:59:39;;;;;;;5.00;1.80;;;-2.30;99.90;;;;;;5045104;28;20503;-49
2021/03/20 03:02:09;;;;;;;3.35;1.48;;;-2.30;99.90;;;;;;5042578;28;20132;-50
2021/03/20 03:04:49;;;;;;;4.55;1.77;;;-2.30;99.90;;;;;;5044249;28;20112;-51
2021/03/20 03:07:25;;;;;;;5.82;1.95;;;-2.40;99.90;;;;;;5044901;28;20032;-55
2021/03/20 03:09:53;;;;;;;;;;;-2.40;99.90;;;;;;5054976;28;20112;-51
2021/03/20 03:12:54;;;;;;;4.82;1.50;;;-2.40;99.90;;;;;;5033334;28;19929;-53
2021/03/20 03:15:31;;;;;;;6.22;1.83;;;-2.50;99.90;;;;;;4987657;28;20501;-55
2021/03/20 03:18:20;;;;;;;4.38;1.80;;;-2.50;99.90;;;;;;5045010;28;20095;-50
2021/03/20 03:20:50;;;;;;;8.88;2.35;;;-2.60;99.90;;;;;;5044037;28;20116;-53
2021/03/20 03:23:19;;;;;;;4.38;1.88;;;-2.60;99.90;;;;;;5044934;28;20029;-51
2021/03/20 03:25:49;;;;;;;5.25;2.45;;;-2.60;99.90;;;;;;5043876;28;20072;-51
2021/03/20 03:28:23;;;;;;;3.85;2.17;;;-2.60;99.90;;;;;;5043312;28;20041;-49
2021/03/20 03:30:49;;;;;;;9.18;2.40;;;-2.60;99.90;;;;;;5043255;28;20098;-52
2021/03/20 03:33:33;;;;;;;2.40;1.60;;;-2.60;99.90;;;;;;5043945;28;20057;-51
2021/03/20 03:36:04;;;;;;;4.10;1.70;;;-2.60;99.90;;;;;;5044390;28;20029;-48
2021/03/20 03:38:49;;;;;;;4.68;1.80;;;-2.70;99.90;;;;;;5043841;28;20119;-56
2021/03/20 03:41:20;;;;;;;7.00;2.30;;;-2.80;99.90;;;;;;5046754;28;20684;-53
2021/03/20 03:43:46;;;;;;;3.75;1.83;;;-2.90;99.90;;;;;;5047434;28;20056;-52
2021/03/20 03:46:12;;;;;;;8.50;1.50;;;-2.90;99.90;;;;;;5048254;28;20071;-54
2021/03/20 03:48:38;;;;;;;3.92;1.80;;;-3.00;99.90;;;;;;5048118;28;20064;-51
2021/03/20 03:51:13;;;;;;;9.88;2.03;;;-3.00;99.90;;;;;;5048230;28;20536;-52
2021/03/20 03:53:39;;;;;;;5.97;1.88;;;-3.00;99.90;;;;;;5048599;28;20073;-53
2021/03/20 03:56:42;;;;;;;7.85;1.75;;;-2.90;99.90;;;;;;5042843;28;20575;-53
2021/03/20 03:59:36;;;;;;;3.90;1.60;;;-3.00;99.90;;;;;;5040634;28;20479;-55
2021/03/20 04:02:01;;;;;;;5.57;2.13;;;-3.20;99.90;;;;;;5043922;28;20574;-54
2021/03/20 04:04:58;;;;;;;5.28;1.85;;;-3.10;99.90;;;;;;5047895;28;20144;-50
2021/03/20 04:08:01;;;;;;;5.05;1.80;;;-3.10;99.90;;;;;;5035022;28;20046;-51
2021/03/20 04:10:43;;;;;;;6.25;1.67;;;-3.00;99.90;;;;;;5027808;28;20163;-55
2021/03/20 04:13:33;;;;;;;4.20;1.70;;;-3.00;99.90;;;;;;5038820;28;20049;-53
2021/03/20 04:16:14;;;;;;;6.63;1.83;;;-3.00;99.90;;;;;;5037359;28;20041;-49
2021/03/20 04:19:01;;;;;;;5.50;1.70;;;-2.90;99.90;;;;;;5048246;28;20037;-50
2021/03/20 04:21:32;;;;;;;;;;;-2.90;99.90;;;;;;5045867;28;20082;-48
2021/03/20 04:24:16;;;;;;;4.28;1.60;;;-3.00;99.90;;;;;;5046548;28;19920;-51
2021/03/20 04:27:02;;;;;;;7.30;2.00;;;-3.10;99.90;;;;;;5038998;28;20512;-51
2021/03/20 04:29:50;;;;;;;8.27;1.98;;;-3.00;99.90;;;;;;5041270;28;20029;-51
2021/03/20 04:32:26;;;;;;;3.38;1.80;;;-3.20;99.90;;;;;;5046043;28;20547;-51
2021/03/20 04:35:06;;;;;;;7.70;1.80;;;-3.30;99.90;;;;;;5047680;28;20044;-54
2021/03/20 04:37:36;;;;;;;9.93;2.08;;;-3.30;99.90;;;;;;5047430;28;20041;-53
2021/03/20 04:40:06;;;;;;;4.05;1.67;;;-3.30;99.90;;;;;;5047081;28;20516;-54
2021/03/20 04:42:36;;;;;;;4.50;1.63;;;-3.30;99.90;;;;;;5030732;28;20175;-52
2021/03/20 04:45:08;;;;;;;3.25;1.52;;;-3.30;99.90;;;;;;5026682;28;20056;-49
2021/03/20 04:47:38;;;;;;;7.35;1.55;;;-3.40;99.90;;;;;;5027629;28;20049;-54
2021/03/20 04:50:08;;;;;;;6.60;2.25;;;-3.30;99.90;;;;;;5027556;28;20168;-53
2021/03/20 04:52:39;;;;;;;4.45;1.42;;;-3.30;99.90;;;;;;5025928;28;20128;-54
2021/03/20 04:55:08;;;;;;;2.60;1.38;;;-3.30;99.90;;;;;;5038463;28;20049;-57
2021/03/20 04:58:04;;;;;;;5.00;1.50;;;-3.40;99.90;;;;;;5046393;28;20102;-50
2021/03/20 05:00:56;;;;;;;5.57;1.73;;;-3.40;99.90;;;;;;5027014;28;20939;-52
2021/03/20 05:03:32;;;;;;;4.10;1.38;;;-3.40;99.90;;;;;;5025293;28;20045;-54
2021/03/20 05:06:07;;;;;;;6.53;2.15;;;-3.40;99.90;;;;;;5033038;28;20041;-55
2021/03/20 05:08:35;;;;;;;4.50;1.85;;;-3.40;99.90;;;;;;5045180;28;20091;-55
2021/03/20 05:11:19;;;;;;;15.32;2.25;;;-3.40;99.90;;;;;;5046730;28;20032;-52
2021/03/20 05:14:08;;;;;;;8.93;1.80;;;-3.50;99.90;;;;;;5046744;28;20116;-56
2021/03/20 05:16:52;;;;;;;9.30;2.03;;;-3.50;99.90;;;;;;5045169;28;20048;-51
2021/03/20 05:19:20;;;;;;;5.55;1.70;;;-3.50;99.90;;;;;;5045346;28;20037;-57
2021/03/20 05:21:52;;;;;;;4.10;1.88;;;-3.60;99.90;;;;;;5046527;28;20048;-52
2021/03/20 05:24:24;;;;;;;5.95;2.03;;;-3.60;99.90;;;;;;5046721;28;20041;-51
2021/03/20 05:26:51;;;;;;;5.32;2.00;;;-3.60;99.90;;;;;;5045234;28;20457;-54
2021/03/20 05:29:16;;;;;;;3.40;1.70;;;-3.60;99.90;;;;;;5035594;28;20045;-55
2021/03/20 05:31:42;;;;;;;7.82;2.00;;;-3.60;99.90;;;;;;5024652;28;20094;-53
2021/03/20 05:34:38;;;;;;;7.43;1.95;;;-3.60;99.90;;;;;;5045162;28;20048;-49
2021/03/20 05:37:06;;;;;;;4.00;1.67;;;-3.60;99.90;;;;;;5014754;28;20092;-56
2021/03/20 05:39:32;;;;;;;3.22;1.83;;;-3.70;99.90;;;;;;5025933;28;20049;-54
2021/03/20 05:42:13;;;;;;;3.75;1.50;;;-3.70;99.90;;;;;;5026715;28;20107;-50
2021/03/20 05:44:55;;;;;;;7.53;2.10;;;-3.70;99.90;;;;;;5024718;28;20049;-54
2021/03/20 05:47:38;;;;;;;4.88;1.67;;;-3.70;99.90;;;;;;5025690;28;20544;-55
2021/03/20 05:50:41;;;;;;;7.50;1.75;;;-3.60;99.90;;;;;;5025341;28;20073;-51
2021/03/20 05:53:27;;;;;;;5.60;1.63;;;-3.50;99.90;;;;;;5020744;28;20052;-53
2021/03/20 05:55:56;;;;;;;9.10;1.83;;;-3.50;99.90;;;;;;5043686;28;20130;-53
2021/03/20 05:58:59;;;;;;;4.13;1.30;;;-3.50;99.90;;;;;;5025788;28;20268;-55
2021/03/20 06:01:54;;;;;;;3.10;1.30;;;-3.50;99.90;;;;;;5025002;28;20049;-52
2021/03/20 06:04:40;;;;;;;8.05;1.67;;;-3.40;99.90;;;;;;5023750;28;20092;-52
2021/03/20 06:07:37;;;;;;;4.88;2.10;;;-3.40;99.90;;;;;;5041382;28;20796;-51
2021/03/20 06:10:36;;;;;;;4.38;1.65;;;-3.20;99.90;;;;;;5045488;28;20047;-49
2021/03/20 06:13:24;;;;;;;4.47;1.65;;;-3.00;99.90;;;;;;5044871;28;20044;-51
2021/03/20 06:16:08;;;;;;;5.07;1.98;;;-2.80;99.90;;;;;;5045018;28;20543;-49
2021/03/20 06:18:46;;;;;;;4.60;1.50;;;-2.70;99.90;;;;;;5039278;28;20111;-53
2021/03/20 06:21:49;;;;;;;3.00;1.35;;;-2.30;99.90;;;;;;5039023;28;20044;-54
2021/03/20 06:24:42;;;;;;;6.80;1.73;;;-1.60;99.90;;;;;;5028668;28;20162;-52
2021/03/20 06:27:22;;;;;;;4.72;1.77;;;-0.90;99.90;;;;;;5045367;28;20041;-54
2021/03/20 06:30:22;;;;;;;4.28;1.50;;;-0.80;99.90;;;;;;5029109;28;20042;-54
2021/03/20 06:32:51;;;;;;;4.93;1.20;;;-0.20;99.90;;;;;;5038683;28;20045;-55
2021/03/20 06:35:17;;;;;;;4.88;1.85;;;0.40;99.90;;;;;;5042422;28;20711;-55
2021/03/20 06:37:55;;;;;;;6.40;1.85;;;0.50;99.10;;;;;;5033714;28;20124;-51
2021/03/20 06:40:29;;;;;;;4.57;1.67;;;0.30;98.50;;;;;;5033171;28;20103;-54
2021/03/20 06:42:56;;;;;;;4.68;1.60;;;0.10;99.10;;;;;;5035000;28;20766;-51
2021/03/20 06:45:26;;;;;;;3.03;1.38;;;-0.20;99.40;;;;;;5031944;28;20226;-53
2021/03/20 06:48:11;;;;;;;7.38;1.65;;;-0.20;99.70;;;;;;5033057;28;20065;-56
2021/03/20 06:50:41;;;;;;;5.40;1.88;;;-0.30;99.60;;;;;;5032598;28;20041;-55
2021/03/20 06:53:09;;;;;;;5.22;2.05;;;0.00;98.80;;;;;;5033755;28;20558;-56
2021/03/20 06:55:38;;;;;;;5.68;1.52;;;0.10;98.80;;;;;;5036782;28;20049;-51
2021/03/20 06:58:22;;;;;;;5.75;1.70;;;0.20;98.40;;;;;;5041621;28;20619;-53
2021/03/20 07:00:48;;;;;;;9.90;1.60;;;0.10;98.10;;;;;;5040442;28;20109;-50
2021/03/20 07:03:23;;;;;;;3.50;1.40;;;-0.10;97.10;;;;;;5043731;28;20143;-52
2021/03/20 07:06:23;;;;;;;3.75;1.50;;;0.00;98.30;;;;;;5043935;28;20040;-50
2021/03/20 07:08:57;;;;;;;4.95;1.25;;;0.40;98.50;;;;;;5013885;28;20413;-52
2021/03/20 07:11:29;;;;;;;3.05;1.63;;;0.60;96.70;;;;;;5044524;28;20033;-51
2021/03/20 07:13:58;;;;;;;4.15;1.30;;;0.90;96.20;;;;;;5041508;28;20116;-54
2021/03/20 07:16:28;;;;;;;3.33;1.40;;;1.50;94.60;;;;;;5040802;28;20211;-56
2021/03/20 07:19:18;;;;;;;2.92;1.70;;;1.60;92.70;;;;;;5031409;28;20046;-54
2021/03/20 07:21:57;;;;;;;2.45;1.20;;;1.60;94.00;;;;;;5024657;28;20498;-49
2021/03/20 07:24:40;;;;;;;4.43;1.73;;;1.80;93.20;;;;;;5031047;28;20045;-52
2021/03/20 07:27:20;;;;;;;6.60;1.58;;;1.70;91.50;;;;;;5044381;28;20052;-55
2021/03/20 07:29:52;;;;;;;3.17;1.25;;;1.60;90.90;;;;;;5044003;28;20037;-54
2021/03/20 07:32:29;;;;;;;3.95;1.30;;;1.50;90.00;;;;;;5043277;28;20071;-57
2021/03/20 07:35:23;;;;;;;2.42;0.90;;;1.30;84.80;;;;;;5045369;28;20048;-54
2021/03/20 07:37:51;;;;;;;3.03;1.00;;;1.20;82.80;;;;;;5041038;28;20037;-49
2021/03/20 07:40:30;;;;;;;3.28;1.27;;;2.10;87.50;;;;;;5025585;28;20060;-48
2021/03/20 07:43:14;;;;;;;3.25;1.10;;;2.30;78.00;;;;;;5022782;28;20056;-55
2021/03/20 07:45:41;;;;;;;1.95;1.00;;;1.90;77.10;;;;;;5024675;28;20104;-49
2021/03/20 07:48:22;;;;;;;1.00;0.60;;;1.50;76.50;;;;;;5030938;28;20036;-55
2021/03/20 07:50:59;;;;;;;3.83;0.85;;;1.20;77.40;;;;;;5045670;28;20044;-57
2021/03/20 07:53:26;;;;;;;1.00;0.70;;;1.10;76.50;;;;;;5044183;28;20037;-52
2021/03/20 07:56:12;;;;;;;1.98;0.90;;;1.10;76.00;;;;;;5044094;28;20029;-56
2021/03/20 07:58:45;;;;;;;6.47;1.52;;;1.40;77.70;;;;;;5042650;28;20049;-55
2021/03/20 08:01:16;;;;;;;3.90;1.50;;;1.30;78.90;;;;;;5042750;28;20052;-51
2021/03/20 08:04:03;;;;;;;5.45;2.17;;;1.70;77.80;;;;;;5042433;28;20041;-50
2021/03/20 08:06:31;;;;;;;3.67;1.50;;;2.60;71.80;;;;;;5043028;28;20052;-52
2021/03/20 08:09:22;;;;;;;1.92;0.80;;;3.00;75.80;;;;;;5044759;28;20041;-52
2021/03/20 08:12:11;;;;;;;2.45;0.70;;;2.90;67.50;;;;;;5044658;28;20143;-53
2021/03/20 08:14:51;;;;;;;1.23;0.50;;;2.50;65.20;;;;;;5037495;28;20120;-53
2021/03/20 08:17:18;;;;;;;0.77;0.47;;;2.60;64.60;;;;;;5028772;28;20138;-54
2021/03/20 08:19:45;;;;;;;1.48;0.88;;;3.10;61.40;;;;;;5045423;28;20036;-50
2021/03/20 08:22:46;;;;;;;1.63;0.45;;;4.20;59.30;;;;;;5039766;28;20084;-54
2021/03/20 08:25:35;;;;;;;4.18;1.60;;;5.60;52.20;;;;;;5031229;28;20056;-57
2021/03/20 08:28:25;;;;;;;1.88;0.60;;;6.30;46.10;;;;;;5028335;28;20068;-51
2021/03/20 08:31:06;;;;;;;5.32;0.95;;;6.30;47.20;;;;;;5033512;28;20149;-52
2021/03/20 08:33:49;;;;;;;3.28;0.65;;;6.90;49.10;;;;;;5032481;28;20037;-61
2021/03/20 08:36:55;;;;;;;2.35;0.70;;;5.70;45.00;;;;;;5025942;28;20041;-54
2021/03/20 08:39:36;;;;;;;1.95;0.77;;;4.10;49.20;;;;;;5010647;28;20053;-52
2021/03/20 08:42:16;;;;;;;2.28;0.82;;;3.00;50.60;;;;;;5030889;28;20033;-53
2021/03/20 08:44:54;;;;;;;1.27;0.50;;;2.20;51.20;;;;;;5045583;28;20044;-57
2021/03/20 08:47:54;;;;;;;4.38;0.95;;;2.00;52.70;;;;;;5044895;28;20131;-53
2021/03/20 08:50:42;;;;;;;1.65;0.60;;;1.70;54.50;;;;;;5045054;28;20076;-51
2021/03/20 08:54:02;;;;;;;1.52;0.60;;;2.00;57.00;;;;;;5038166;28;20033;-51
2021/03/20 08:57:05;;;;;;;1.65;0.90;;;1.70;53.50;;;;;;4975692;28;20050;-54
2021/03/20 08:59:39;;;;;;;1.98;0.70;;;1.80;55.40;;;;;;5034033;28;20394;-54
2021/03/20 09:02:23;;;;;;;2.15;0.60;;;2.20;59.20;;;;;;5043391;28;20390;-55
2021/03/20 09:04:59;;;;;;;3.42;0.70;;;2.40;59.70;;;;;;5044933;28;20053;-54
2021/03/20 09:07:34;;;;;;;3.58;0.70;;;2.10;60.00;;;;;;5045138;28;20040;-51
2021/03/20 09:10:04;;;;;;;1.27;0.52;;;1.70;56.10;;;;;;5045430;28;20552;-52
2021/03/20 09:12:43;;;;;;;2.30;0.50;;;1.70;57.50;;;;;;5039124;28;20045;-51
2021/03/20 09:15:28;;;;;;;4.38;1.30;;;1.80;57.20;;;;;;5023835;28;20041;-57
2021/03/20 09:17:56;;;;;;;3.60;0.70;;;1.70;56.30;;;;;;5012737;28;20394;-57
2021/03/20 09:20:43;;;;;;;2.50;0.77;;;1.90;56.30;;;;;;5016092;28;20509;-49
2021/03/20 09:23:17;;;;;;;;;;;1.70;55.60;;;;;;5024798;28;20041;-52
2021/03/20 09:25:43;;;;;;;36.47;20.30;;;1.90;62.60;;;;;;5023439;28;20553;-51
2021/03/20 09:28:15;;;;;;;3.47;1.73;;;2.10;61.00;;;;;;5014841;28;20070;-50
2021/03/20 09:30:49;;;;;;;9.65;1.70;;;2.20;59.80;;;;;;5021863;28;20048;-53
2021/03/20 09:33:17;;;;;;;5.25;2.05;;;2.00;58.30;;;;;;5022221;28;20695;-54
2021/03/20 09:35:52;;;;;;;3.08;1.95;;;1.90;56.90;;;;;;5021854;28;20041;-56
2021/03/20 09:38:36;;;;;;;2.38;0.60;;;1.90;54.80;;;;;;5022383;28;20030;-55
2021/03/20 09:41:03;;;;;;;2.15;0.77;;;1.80;54.60;;;;;;5016634;28;20056;-53
2021/03/20 09:44:08;;;;;;;20.92;1.23;;;2.00;55.80;;;;;;5018926;28;20064;-53
2021/03/20 09:46:38;;;;;;;7.90;1.10;;;2.10;52.60;;;;;;5014744;28;20132;-52
2021/03/20 09:49:06;;;;;;;1.33;0.60;;;2.10;52.20;;;;;;5023046;28;20631;-54
2021/03/20 09:51:50;;;;;;;3.03;1.50;;;1.90;51.80;;;;;;5033437;28;20673;-48
2021/03/20 09:54:25;;;;;;;26.88;15.68;;;2.00;55.20;;;;;;5040020;28;20049;-50
2021/03/20 09:56:51;;;;;;;19.60;11.30;;;1.80;53.90;;;;;;5034271;28;20631;-50
2021/03/20 09:59:29;;;;;;;15.70;6.35;;;1.80;56.10;;;;;;5043159;28;20124;-53
2021/03/20 10:01:56;;;;;;;6.10;3.03;;;2.00;54.80;;;;;;5040754;28;20087;-51
2021/03/20 10:04:57;;;;;;;4.38;2.45;;;2.20;60.80;;;;;;5042378;28;20057;-52
2021/03/20 10:07:26;;;;;;;4.13;1.58;;;2.70;59.70;;;;;;5036388;28;20048;-55
2021/03/20 10:10:13;;;;;;;4.35;1.40;;;2.80;57.20;;;;;;5036517;28;20416;-54
2021/03/20 10:12:50;;;;;;;6.90;2.40;;;3.00;56.40;;;;;;5036248;28;20537;-54
2021/03/20 10:15:28;;;;;;;0.90;0.70;;;2.90;55.70;;;;;;5031618;28;20048;-60
2021/03/20 10:18:11;;;;;;;3.67;0.90;;;3.00;57.20;;;;;;5034640;28;20040;-56
2021/03/20 10:20:51;;;;;;;2.17;0.85;;;3.00;55.10;;;;;;5033066;28;20102;-53
2021/03/20 10:23:44;;;;;;;1.75;0.73;;;2.90;52.50;;;;;;5034115;28;20546;-57
2021/03/20 10:26:27;;;;;;;6.50;2.25;;;3.00;52.60;;;;;;5040954;28;20045;-56
2021/03/20 10:29:00;;;;;;;2.30;1.00;;;2.90;53.00;;;;;;5041458;28;20083;-57
2021/03/20 10:31:29;;;;;;;3.45;0.95;;;3.00;53.60;;;;;;5040779;28;20041;-57
2021/03/20 10:34:11;;;;;;;3.30;1.63;;;3.10;52.80;;;;;;5042343;28;20114;-52
2021/03/20 10:36:42;;;;;;;6.45;2.90;;;3.10;51.20;;;;;;5036736;28;20053;-53
2021/03/20 10:39:45;;;;;;;3.85;1.65;;;3.00;55.10;;;;;;5042735;28;20570;-52
2021/03/20 10:42:32;;;;;;;1.45;0.95;;;3.20;55.10;;;;;;4979369;28;20077;-56
2021/03/20 10:45:03;;;;;;;15.10;9.15;;;3.10;54.00;;;;;;5039083;28;20048;-56
2021/03/20 10:47:31;;;;;;;1.83;0.88;;;3.30;55.50;;;;;;5039586;28;20094;-57
2021/03/20 10:50:06;;;;;;;3.70;0.65;;;3.10;56.60;;;;;;5034446;28;20037;-57
2021/03/20 10:52:35;;;;;;;1.60;0.73;;;3.10;54.30;;;;;;5028766;28;20215;-59
2021/03/20 10:55:14;;;;;;;2.28;0.95;;;3.30;54.70;;;;;;5039002;28;20052;-54
2021/03/20 10:57:40;;;;;;;1.90;1.10;;;3.20;53.00;;;;;;5042004;28;20047;-56
2021/03/20 11:00:30;;;;;;;1.17;0.60;;;3.10;53.50;;;;;;5042060;28;20032;-58
2021/03/20 11:03:34;;;;;;;2.92;0.93;;;3.40;55.40;;;;;;5020764;28;20339;-57
2021/03/20 11:06:19;;;;;;;1.75;0.98;;;3.50;53.80;;;;;;4949205;28;20066;-54
2021/03/20 11:08:48;;;;;;;3.50;0.90;;;3.30;52.90;;;;;;5037551;28;20140;-53
2021/03/20 11:11:19;;;;;;;5.05;0.85;;;3.00;53.00;;;;;;5040494;28;20094;-54
2021/03/20 11:13:54;;;;;;;3.25;0.77;;;3.30;55.40;;;;;;5026138;28;20041;-56
2021/03/20 11:16:26;;;;;;;3.40;0.60;;;3.40;54.10;;;;;;5021127;28;20037;-55
2021/03/20 11:19:16;;;;;;;2.33;0.55;;;3.60;55.30;;;;;;5025698;28;20124;-54
2021/03/20 11:21:48;;;;;;;1.70;1.00;;;3.60;54.70;;;;;;5039162;28;20068;-54
2021/03/20 11:24:36;;;;;;;3.25;1.00;;;3.40;55.00;;;;;;5042014;28;20052;-53
2021/03/20 11:27:18;;;;;;;2.97;0.80;;;3.10;55.10;;;;;;5041027;28;20106;-56
2021/03/20 11:29:47;;;;;;;2.92;0.45;;;3.00;54.30;;;;;;5041068;28;20033;-56
2021/03/20 11:32:36;;;;;;;2.25;0.95;;;3.00;54.80;;;;;;5027097;28;20037;-58
2021/03/20 11:35:28;;;;;;;2.10;0.90;;;3.20;56.10;;;;;;5042010;28;20131;-56
2021/03/20 11:37:59;;;;;;;1.40;0.90;;;3.30;52.90;;;;;;5040637;28;20041;-56
2021/03/20 11:40:41;;;;;;;3.78;0.90;;;3.20;52.20;;;;;;5042016;28;20048;-54
2021/03/20 11:43:34;;;;;;;2.85;1.00;;;3.20;53.70;;;;;;5040140;28;20068;-50
2021/03/20 11:46:14;;;;;;;3.10;0.90;;;3.50;54.10;;;;;;5056042;28;20049;-55
2021/03/20 11:48:44;;;;;;;1.33;0.70;;;3.60;53.90;;;;;;5040021;28;20051;-55
2021/03/20 11:51:15;;;;;;;1.83;0.90;;;3.40;53.20;;;;;;5041617;28;20114;-57
2021/03/20 11:53:48;;;;;;;9.85;3.83;;;3.30;54.10;;;;;;5041391;28;20071;-54
2021/03/20 11:56:17;;;;;;;3.20;1.23;;;3.50;54.40;;;;;;5039992;28;20029;-56
2021/03/20 11:58:57;;;;;;;3.42;1.33;;;3.50;53.00;;;;;;5035689;28;20072;-54
2021/03/20 12:01:31;;;;;;;1.75;0.90;;;3.40;52.70;;;;;;5034073;28;20071;-54
2021/03/20 12:04:00;;;;;;;4.55;1.38;;;3.20;54.90;;;;;;5024681;28;20127;-55
2021/03/20 12:06:30;;;;;;;4.63;1.30;;;3.20;58.20;;;;;;5025580;28;20037;-52
2021/03/20 12:09:02;;;;;;;4.40;2.00;;;3.30;55.40;;;;;;5025632;28;20045;-54
2021/03/20 12:11:44;;;;;;;8.10;2.70;;;3.50;54.60;;;;;;5030057;28;20079;-52
2021/03/20 12:14:29;;;;;;;4.50;1.80;;;3.60;56.10;;;;;;5043424;28;20593;-52
2021/03/20 12:17:25;;;;;;;3.20;1.70;;;3.50;54.50;;;;;;5043941;28;20072;-53
2021/03/20 12:19:54;;;;;;;3.85;2.10;;;3.70;59.20;;;;;;5044466;28;20059;-53
2021/03/20 12:22:49;;;;;;;4.18;2.10;;;3.60;54.50;;;;;;5044499;28;20674;-53
2021/03/20 12:25:36;;;;;;;3.28;1.80;;;3.70;56.60;;;;;;5046723;28;20110;-56
2021/03/20 12:28:20;;;;;;;;;;;3.50;56.30;;;;;;5049438;28;20041;-54
2021/03/20 12:31:00;;;;;;;3.47;1.63;;;3.60;55.90;;;;;;5041883;28;19924;-59
2021/03/20 12:33:27;;;;;;;4.72;2.80;;;3.60;54.50;;;;;;5062448;28;20095;-52
2021/03/20 12:35:53;;;;;;;3.28;1.80;;;3.60;59.40;;;;;;5055608;28;20056;-57
2021/03/20 12:38:26;;;;;;;5.13;2.30;;;3.80;55.30;;;;;;5043774;28;20029;-56
2021/03/20 12:41:01;;;;;;;5.47;2.15;;;4.00;57.00;;;;;;5043456;28;20033;-57
2021/03/20 12:43:34;;;;;;;8.52;4.03;;;4.30;57.90;;;;;;5044483;28;20044;-52
2021/03/20 12:46:03;;;;;;;4.53;2.30;;;4.50;56.80;;;;;;5036545;28;20107;-56
2021/03/20 12:48:29;;;;;;;5.82;2.00;;;4.70;55.70;;;;;;5033075;28;20133;-55
2021/03/20 12:51:01;;;;;;;6.78;4.20;;;4.60;53.60;;;;;;5035395;28;20119;-56
2021/03/20 12:53:27;;;;;;;3.28;1.50;;;4.50;54.30;;;;;;5030626;28;20054;-56
2021/03/20 12:55:53;;;;;;;6.45;2.55;;;4.40;54.60;;;;;;5042380;28;20045;-53
2021/03/20 12:58:19;;;;;;;4.10;1.83;;;4.40;56.30;;;;;;5043602;28;20125;-54
2021/03/20 13:00:44;;;;;;;;;;;4.30;55.40;;;;;;5043003;28;20548;-54
2021/03/20 13:03:10;;;;;;;4.15;1.85;;;4.20;56.40;;;;;;5043371;28;20665;-54
2021/03/20 13:05:38;;;;;;;2.13;1.30;;;4.30;59.00;;;;;;5043591;28;20417;-54
2021/03/20 13:08:06;;;;;;;3.20;1.70;;;4.30;55.50;;;;;;5043433;28;20033;-55
2021/03/20 13:10:32;;;;;;;4.15;1.42;;;4.30;59.80;;;;;;5043053;28;20071;-55
2021/03/20 13:12:58;;;;;;;2.67;1.42;;;4.50;60.60;;;;;;5033424;28;20694;-54
2021/03/20 13:15:24;;;;;;;6.63;3.17;;;4.50;56.40;;;;;;5042428;28;20045;-52
2021/03/20 13:17:50;;;;;;;15.70;4.15;;;4.60;55.50;;;;;;5043511;28;20095;-54
2021/03/20 13:20:20;;;;;;;6.68;3.90;;;4.60;57.50;;;;;;5043181;28;20045;-53
2021/03/20 13:22:47;;;;;;;3.28;1.88;;;4.70;56.80;;;;;;5043239;28;20675;-53
2021/03/20 13:25:39;;;;;;;3.65;2.00;;;4.60;52.80;;;;;;5042078;28;20738;-55
2021/03/20 13:28:07;;;;;;;4.75;1.88;;;4.60;58.60;;;;;;5040009;28;20047;-53
2021/03/20 13:30:35;;;;;;;5.25;2.47;;;4.70;59.00;;;;;;5028198;28;20099;-56
2021/03/20 13:33:01;;;;;;;9.82;5.90;;;4.50;53.70;;;;;;5023162;28;20038;-56
2021/03/20 13:35:30;;;;;;;;;;;4.40;54.30;;;;;;5038376;28;20045;-53
2021/03/20 13:37:55;;;;;;;5.93;2.17;;;4.30;55.60;;;;;;5039311;28;19921;-55
2021/03/20 13:40:24;;;;;;;14.55;5.00;;;4.30;59.70;;;;;;5042665;28;20041;-55